Kronenwetter, WI

10:03 AM CST on March 01, 2015 (GMT -0600)
Knopf's House | Change Station
CLOSE
Current Station
Personal Weather Station
Location: Weston, WI
Elevation: 1214 ft
Nearby Weather Stations

Elev 1214 ft 44.91 °N, 89.55 °W | Updated 8 minutes ago

Mostly Cloudy
Mostly Cloudy
16.2 °F
Feels Like 8 °F
N
5.3
Wind Variable Wind from West

Today
High -- | Low -- °F
--% Chance of Precip.
Yesterday
High -- | Low -- °F
Precip. -- in
6:36 AM 5:45 PM
Waxing Gibbous, 86% visible
Pressure 30.23 in
Visibility 4.0 miles
Clouds Overcast 1100 ft
Windchill 8 °F
Dew Point 11 °F
Humidity 80%
Rainfall 0.00 in
Snow Depth Not available.
UV 1 out of 12
Pollen .40 out of 12
Air Quality Not available.
Flu Activity Not available.
METAR KCWA 011545Z 20009KT 4SM -SN OVC011 M11/M13 A3023

More Conditions Fewer Conditions

Pressure 30.23 in
Visibility 4.0 miles
Clouds Overcast 1100 ft
Windchill 8 °F
Dew Point 11 °F
Humidity 80%
Rainfall 0.00 in
Snow Depth Not available.
UV 1 out of 12
Pollen .40 out of 12
Air Quality Not available.
Flu Activity Not available.
METAR KCWA 011545Z 20009KT 4SM -SN OVC011 M11/M13 A3023

More Conditions Fewer Conditions

10-Day Weather Forecast

Almanac

Astronomy

Mar. 01, 2015 Rise Set
Actual Time
Civil Twilight
Nautical Twilight
Astronomical Twilight
Moon
Length of Visible Light
Length of Day
Tomorrow will be .
, % of the Moon is Illuminated

Today's Extremes

State Highs State Lows

Community

WunderPhotos

Upload Photos

1,801,440 photos uploaded!

WunderBlogs® & News

Nearby

Air Quality

  Air Quality AQ Index Pollutant
Not available.

Snow Depth

Station Depth Elevation

Earthquake Activity

City Distance Mag. Time & Date
Minimum magnitude displayed is 2.5.

Coastal Water Temperatures

Place Temperature

Nearby Weather Stations